createdAt,value
2024-01-21T00:02:22.448Z,95.50
2024-01-21T00:04:50.567Z,94.50
2024-01-21T00:07:19.703Z,94.40
2024-01-21T00:09:47.504Z,94.00
2024-01-21T00:12:15.454Z,93.40
2024-01-21T00:14:43.317Z,91.30
2024-01-21T00:17:12.488Z,90.00
2024-01-21T00:19:40.995Z,86.30
2024-01-21T00:22:08.987Z,86.00
2024-01-21T00:24:38.179Z,86.70
2024-01-21T00:27:06.524Z,88.00
2024-01-21T00:29:34.338Z,89.10
2024-01-21T00:32:02.194Z,89.80
2024-01-21T00:34:30.422Z,89.70
2024-01-21T00:36:58.400Z,89.60
2024-01-21T00:39:26.320Z,89.60
2024-01-21T00:42:01.911Z,89.90
2024-01-21T00:44:35.879Z,89.60
2024-01-21T00:47:03.930Z,89.60
2024-01-21T00:49:32.345Z,89.80
2024-01-21T00:52:00.557Z,90.20
2024-01-21T00:54:28.415Z,90.00
2024-01-21T00:56:57.778Z,90.40
2024-01-21T00:59:25.592Z,90.20
2024-01-21T01:01:53.370Z,90.40
2024-01-21T01:04:21.241Z,90.70
2024-01-21T01:06:49.057Z,90.50
2024-01-21T01:09:16.939Z,90.40
2024-01-21T01:11:44.722Z,90.70
2024-01-21T01:14:13.876Z,90.40
2024-01-21T01:16:42.118Z,90.90
2024-01-21T01:19:10.415Z,90.50
2024-01-21T01:21:38.601Z,90.50
2024-01-21T01:24:07.003Z,90.60
2024-01-21T01:26:34.863Z,91.20
2024-01-21T01:29:02.670Z,91.20
2024-01-21T01:31:31.910Z,91.70
2024-01-21T01:33:59.784Z,91.70
2024-01-21T01:36:29.304Z,91.70
2024-01-21T01:38:57.320Z,92.40
2024-01-21T01:41:25.241Z,92.30
2024-01-21T01:43:53.287Z,92.30
2024-01-21T01:46:21.345Z,92.00
2024-01-21T01:48:50.677Z,92.10
2024-01-21T01:51:18.905Z,92.00
2024-01-21T01:53:46.986Z,92.50
2024-01-21T01:56:14.836Z,93.20
2024-01-21T01:58:45.147Z,93.50
2024-01-21T02:01:13.061Z,93.70
2024-01-21T02:03:41.243Z,94.50
2024-01-21T02:06:10.590Z,94.70
2024-01-21T02:08:38.507Z,92.20
2024-01-21T02:11:06.739Z,86.70
2024-01-21T02:13:34.601Z,84.20
2024-01-21T02:16:02.462Z,86.40
2024-01-21T02:18:30.880Z,86.50
2024-01-21T02:20:58.761Z,86.20
2024-01-21T02:23:27.879Z,87.20
2024-01-21T02:25:55.665Z,87.90
2024-01-21T02:28:23.452Z,88.00
2024-01-21T02:30:51.300Z,88.50
2024-01-21T02:33:19.196Z,88.50
2024-01-21T02:35:47.035Z,88.80
2024-01-21T02:38:15.066Z,89.30
2024-01-21T02:40:44.262Z,90.20
2024-01-21T02:43:12.161Z,89.90
2024-01-21T02:45:40.054Z,89.80
2024-01-21T02:48:08.492Z,89.80
2024-01-21T02:50:36.357Z,90.30
2024-01-21T02:53:04.277Z,90.60
2024-01-21T02:55:32.893Z,90.30
2024-01-21T02:58:02.084Z,90.20
2024-01-21T03:00:29.903Z,90.30
2024-01-21T03:02:57.818Z,90.60
2024-01-21T03:05:25.900Z,90.70
2024-01-21T03:07:53.698Z,90.90
2024-01-21T03:10:21.618Z,91.00
2024-01-21T03:12:49.469Z,91.00
2024-01-21T03:15:18.716Z,91.50
2024-01-21T03:17:46.608Z,91.80
2024-01-21T03:20:14.493Z,91.90
2024-01-21T03:22:42.294Z,91.90
2024-01-21T03:25:10.327Z,91.40
2024-01-21T03:27:38.216Z,91.30
2024-01-21T03:30:07.119Z,91.40
2024-01-21T03:32:36.340Z,91.30
2024-01-21T03:35:04.224Z,91.60
2024-01-21T03:37:32.003Z,91.70
2024-01-21T03:39:59.924Z,91.80
2024-01-21T03:42:27.753Z,92.40
2024-01-21T03:44:55.586Z,92.80
2024-01-21T03:47:23.421Z,93.00
2024-01-21T03:49:53.061Z,93.30
2024-01-21T03:52:21.874Z,93.10
2024-01-21T03:54:49.745Z,93.00
2024-01-21T03:57:18.984Z,93.10
2024-01-21T03:59:48.098Z,93.30
2024-01-21T04:02:16.014Z,93.40
2024-01-21T04:04:46.576Z,93.70
2024-01-21T04:07:15.787Z,94.10
2024-01-21T04:09:43.652Z,93.00
2024-01-21T04:12:13.846Z,92.20
2024-01-21T04:14:41.943Z,91.10
2024-01-21T04:17:11.438Z,91.00
2024-01-21T04:19:39.337Z,91.30
2024-01-21T04:22:07.234Z,91.40
2024-01-21T04:24:36.579Z,92.10
2024-01-21T04:27:04.676Z,91.60
2024-01-21T04:29:32.587Z,90.30
2024-01-21T04:32:00.419Z,90.00
2024-01-21T04:34:28.437Z,89.70
2024-01-21T04:36:56.409Z,89.70
2024-01-21T04:39:24.829Z,90.00
2024-01-21T04:41:54.021Z,90.20
2024-01-21T04:44:21.862Z,90.50
2024-01-21T04:46:49.727Z,91.30
2024-01-21T04:49:17.688Z,90.90
2024-01-21T04:51:45.881Z,90.40
2024-01-21T04:54:13.805Z,90.20
2024-01-21T04:56:41.719Z,91.00
2024-01-21T04:59:11.592Z,91.30
2024-01-21T05:01:40.970Z,91.70
2024-01-21T05:04:09.883Z,92.30
2024-01-21T05:06:37.907Z,92.50
2024-01-21T05:09:05.809Z,92.60
2024-01-21T05:11:33.676Z,92.30
2024-01-21T05:14:01.488Z,92.30
2024-01-21T05:16:30.668Z,92.40
2024-01-21T05:18:58.524Z,92.50
2024-01-21T05:21:26.622Z,92.20
2024-01-21T05:23:54.663Z,91.70
2024-01-21T05:26:22.505Z,91.90
2024-01-21T05:28:50.426Z,92.20
2024-01-21T05:31:18.247Z,92.20
2024-01-21T05:33:48.382Z,91.60
2024-01-21T05:36:16.460Z,90.90
2024-01-21T05:38:44.317Z,90.90
2024-01-21T05:41:14.236Z,91.30
2024-01-21T05:43:42.141Z,90.60
2024-01-21T05:46:10.047Z,90.00
2024-01-21T05:48:38.040Z,89.30
2024-01-21T05:51:07.908Z,89.10
2024-01-21T05:53:35.742Z,89.60
2024-01-21T05:56:06.514Z,89.80
2024-01-21T05:58:35.353Z,90.60
2024-01-21T06:01:03.312Z,90.50
2024-01-21T06:03:31.399Z,90.70
2024-01-21T06:05:59.427Z,90.30
2024-01-21T06:08:29.127Z,90.20
2024-01-21T06:10:56.987Z,89.80
2024-01-21T06:13:24.835Z,89.70
2024-01-21T06:15:52.867Z,89.90
2024-01-21T06:18:20.803Z,89.70
2024-01-21T06:20:48.775Z,90.30
2024-01-21T06:23:16.592Z,90.00
2024-01-21T06:25:45.897Z,89.80
2024-01-21T06:28:13.880Z,89.40
2024-01-21T06:30:41.791Z,89.40
2024-01-21T06:33:09.759Z,89.00
2024-01-21T06:35:37.575Z,88.70
2024-01-21T06:38:05.599Z,88.80
2024-01-21T06:40:33.450Z,88.90
2024-01-21T06:43:02.886Z,89.40
2024-01-21T06:45:30.703Z,89.40
2024-01-21T06:47:58.750Z,89.60
2024-01-21T06:50:28.512Z,89.60
2024-01-21T06:52:56.540Z,89.50
2024-01-21T06:55:24.479Z,89.40
2024-01-21T06:57:52.395Z,88.90
2024-01-21T07:00:22.447Z,89.10
2024-01-21T07:02:50.319Z,88.70
2024-01-21T07:05:18.339Z,88.20
2024-01-21T07:07:48.025Z,88.30
2024-01-21T07:10:17.337Z,88.60
2024-01-21T07:12:45.329Z,88.80
2024-01-21T07:15:13.397Z,89.10
2024-01-21T07:17:43.022Z,88.60
2024-01-21T07:20:13.304Z,88.50
2024-01-21T07:22:41.219Z,89.20
2024-01-21T07:25:09.890Z,89.40
2024-01-21T07:27:37.885Z,89.80
2024-01-21T07:30:07.186Z,89.50
2024-01-21T07:32:35.088Z,89.70
2024-01-21T07:35:04.813Z,89.60
2024-01-21T07:37:32.757Z,90.50
2024-01-21T07:40:00.743Z,90.60
2024-01-21T07:42:28.678Z,89.90
2024-01-21T07:44:56.518Z,89.10
2024-01-21T07:47:24.385Z,88.60
2024-01-21T07:49:52.764Z,88.00
2024-01-21T07:52:22.048Z,88.20
2024-01-21T07:54:49.946Z,87.70
2024-01-21T07:57:17.865Z,87.90
2024-01-21T07:59:45.764Z,88.10
2024-01-21T08:02:13.576Z,88.50
2024-01-21T08:04:41.479Z,88.10
2024-01-21T08:07:09.669Z,88.60
2024-01-21T08:09:38.993Z,88.20
2024-01-21T08:12:07.796Z,87.70
2024-01-21T08:14:35.676Z,87.00
2024-01-21T08:17:04.309Z,86.80
2024-01-21T08:19:38.072Z,85.10
2024-01-21T08:22:06.634Z,84.30
2024-01-21T08:24:37.270Z,82.70
2024-01-21T08:27:08.152Z,81.80
2024-01-21T08:29:37.813Z,81.00
2024-01-21T08:32:08.460Z,81.70
2024-01-21T08:34:37.258Z,81.80
2024-01-21T08:37:05.655Z,81.40
2024-01-21T08:39:33.664Z,81.00
2024-01-21T08:42:01.514Z,81.80
2024-01-21T08:44:30.714Z,81.10
2024-01-21T08:46:58.917Z,80.70
2024-01-21T08:49:27.447Z,80.50
2024-01-21T08:51:55.570Z,80.90
2024-01-21T08:54:23.441Z,81.50
2024-01-21T08:56:51.315Z,81.40
2024-01-21T08:59:19.155Z,80.40
2024-01-21T09:01:48.386Z,79.90
2024-01-21T09:04:16.627Z,78.10
2024-01-21T09:06:44.758Z,77.90
2024-01-21T09:09:13.608Z,78.60
2024-01-21T09:11:42.057Z,79.40
2024-01-21T09:14:09.895Z,79.00
2024-01-21T09:16:37.809Z,78.90
2024-01-21T09:19:07.262Z,77.30
2024-01-21T09:21:36.028Z,77.20
2024-01-21T09:24:06.228Z,77.60
2024-01-21T09:26:35.097Z,77.00
2024-01-21T09:29:03.372Z,76.20
2024-01-21T09:31:31.625Z,76.50
2024-01-21T09:33:59.679Z,75.80
2024-01-21T09:36:29.147Z,76.80
2024-01-21T09:38:57.122Z,76.80
2024-01-21T09:41:38.088Z,75.10
2024-01-21T09:44:07.129Z,75.10
2024-01-21T09:46:35.234Z,74.70
2024-01-21T09:49:06.029Z,73.10
2024-01-21T09:51:38.351Z,72.20
2024-01-21T09:54:07.861Z,72.90
2024-01-21T09:56:36.545Z,72.60
2024-01-21T09:59:06.883Z,69.60
2024-01-21T10:01:35.046Z,69.70
2024-01-21T10:04:02.947Z,71.90
2024-01-21T10:06:31.007Z,73.00
2024-01-21T10:09:14.082Z,73.40
2024-01-21T10:11:42.414Z,74.10
2024-01-21T10:14:11.106Z,74.00
2024-01-21T10:16:42.788Z,73.90
2024-01-21T10:19:14.241Z,73.30
2024-01-21T10:21:42.476Z,73.10
2024-01-21T10:24:12.166Z,72.40
2024-01-21T10:26:43.859Z,71.80
2024-01-21T10:29:11.819Z,69.70
2024-01-21T10:31:39.752Z,67.30
2024-01-21T10:34:07.774Z,69.20
2024-01-21T10:36:37.128Z,69.30
2024-01-21T10:39:07.822Z,67.30
2024-01-21T10:41:36.649Z,66.50
2024-01-21T10:44:08.608Z,66.60
2024-01-21T10:46:39.588Z,66.00
2024-01-21T10:49:07.814Z,66.20
2024-01-21T10:51:35.752Z,65.50
2024-01-21T10:54:05.795Z,67.60
2024-01-21T10:56:35.008Z,66.90
2024-01-21T10:59:03.799Z,64.80
2024-01-21T11:04:10.140Z,64.60
2024-01-21T11:06:38.356Z,65.40
2024-01-21T11:09:10.111Z,64.70
2024-01-21T11:11:43.777Z,64.90
2024-01-21T11:14:30.197Z,65.70
2024-01-21T11:17:03.426Z,64.50
2024-01-21T11:19:38.710Z,65.30
2024-01-21T11:22:06.978Z,65.60
2024-01-21T11:24:35.701Z,65.10
2024-01-21T11:27:04.079Z,63.90
2024-01-21T11:29:33.433Z,64.10
2024-01-21T11:32:04.410Z,62.40
2024-01-21T11:34:38.250Z,60.50
2024-01-21T11:37:06.473Z,61.20
2024-01-21T11:39:34.467Z,59.70
2024-01-21T11:42:03.087Z,59.70
2024-01-21T11:44:32.379Z,59.00
2024-01-21T11:47:03.449Z,60.50
2024-01-21T11:49:32.353Z,59.70
2024-01-21T11:52:02.136Z,60.40
2024-01-21T11:54:31.694Z,60.70
2024-01-21T11:56:59.948Z,60.00
2024-01-21T11:59:28.083Z,61.20
2024-01-21T12:01:59.512Z,61.70
2024-01-21T12:04:30.024Z,61.20
2024-01-21T12:06:59.881Z,61.90
2024-01-21T12:09:28.047Z,59.70
2024-01-21T12:11:55.898Z,60.70
2024-01-21T12:14:23.921Z,59.90
2024-01-21T12:16:52.702Z,59.00
2024-01-21T12:19:20.651Z,60.20
2024-01-21T12:21:50.004Z,61.00
2024-01-21T12:24:17.959Z,60.90
2024-01-21T12:26:47.215Z,61.20
2024-01-21T12:29:15.094Z,61.00
2024-01-21T12:31:43.177Z,59.90
2024-01-21T12:34:12.397Z,59.80
2024-01-21T12:36:43.238Z,61.00
2024-01-21T12:39:13.340Z,60.80
2024-01-21T12:41:41.482Z,59.20
2024-01-21T12:44:09.389Z,58.20
2024-01-21T12:46:38.301Z,57.80
2024-01-21T12:49:06.363Z,58.10
2024-01-21T12:51:36.105Z,57.30
2024-01-21T12:54:04.103Z,56.40
2024-01-21T12:56:35.822Z,57.50
2024-01-21T12:59:05.167Z,54.50
2024-01-21T13:01:33.515Z,55.40
2024-01-21T13:04:01.517Z,54.90
2024-01-21T13:06:29.687Z,54.90
2024-01-21T13:08:57.599Z,54.90
2024-01-21T13:11:25.426Z,56.20
2024-01-21T13:13:54.585Z,57.20
2024-01-21T13:16:22.459Z,55.80
2024-01-21T13:18:50.370Z,56.30
2024-01-21T13:21:18.259Z,55.00
2024-01-21T13:23:46.742Z,54.30
2024-01-21T13:26:15.232Z,53.00
2024-01-21T13:29:11.159Z,52.50
2024-01-21T13:31:40.937Z,51.90
2024-01-21T13:34:10.728Z,52.10
2024-01-21T13:36:38.870Z,52.80
2024-01-21T13:39:06.973Z,52.20
2024-01-21T13:41:35.004Z,53.00
2024-01-21T13:44:02.841Z,51.40
2024-01-21T13:46:30.674Z,50.70
2024-01-21T13:48:59.917Z,48.80
2024-01-21T13:51:28.997Z,49.30
2024-01-21T13:53:56.962Z,47.70
2024-01-21T13:56:25.852Z,48.20
2024-01-21T13:58:54.954Z,47.90
2024-01-21T14:01:22.939Z,44.50
2024-01-21T14:03:50.900Z,45.50
2024-01-21T14:06:20.877Z,44.90
2024-01-21T14:08:48.736Z,44.10
2024-01-21T14:11:16.592Z,44.70
2024-01-21T14:13:44.909Z,44.50
2024-01-21T14:16:12.764Z,44.30
2024-01-21T14:18:41.984Z,44.40
2024-01-21T14:21:10.149Z,45.60
2024-01-21T14:23:39.287Z,45.00
2024-01-21T14:26:10.932Z,44.90
2024-01-21T14:28:45.706Z,43.80
2024-01-21T14:31:13.597Z,42.90
2024-01-21T14:33:41.689Z,43.10
2024-01-21T14:36:10.212Z,41.80
2024-01-21T14:38:40.266Z,42.70
2024-01-21T14:41:08.609Z,41.60
2024-01-21T14:43:36.438Z,42.00
2024-01-21T14:46:04.729Z,42.40
2024-01-21T14:48:33.005Z,43.00
2024-01-21T14:51:00.992Z,42.40
2024-01-21T14:53:29.492Z,42.60
2024-01-21T14:55:59.528Z,42.70
2024-01-21T14:58:27.400Z,43.50
2024-01-21T15:00:55.281Z,44.00
2024-01-21T15:03:23.187Z,44.20
2024-01-21T15:05:51.140Z,44.40
2024-01-21T15:08:19.148Z,45.10
2024-01-21T15:10:47.531Z,45.90
2024-01-21T15:13:23.118Z,45.90
2024-01-21T15:15:51.105Z,44.70
2024-01-21T15:18:27.292Z,45.70
2024-01-21T15:20:58.518Z,45.40
2024-01-21T15:23:26.395Z,46.10
2024-01-21T15:25:55.476Z,43.60
2024-01-21T15:28:24.640Z,44.40
2024-01-21T15:30:52.559Z,44.50
2024-01-21T15:33:20.886Z,43.70
2024-01-21T15:35:48.779Z,44.20
2024-01-21T15:38:16.611Z,44.60
2024-01-21T15:40:44.440Z,44.80
2024-01-21T15:43:12.472Z,45.40
2024-01-21T15:45:41.683Z,45.90
2024-01-21T15:48:10.056Z,46.50
2024-01-21T15:50:38.009Z,46.40
2024-01-21T15:53:06.135Z,46.70
2024-01-21T15:55:33.976Z,47.40
2024-01-21T15:58:01.861Z,46.60
2024-01-21T16:00:34.334Z,46.00
2024-01-21T16:03:05.153Z,46.30
2024-01-21T16:05:33.101Z,46.50
2024-01-21T16:08:00.923Z,46.20
2024-01-21T16:10:28.709Z,45.80
2024-01-21T16:12:57.075Z,45.30
2024-01-21T16:15:34.309Z,45.50
2024-01-21T16:18:09.692Z,45.60
2024-01-21T16:20:39.048Z,46.70
2024-01-21T16:23:07.825Z,47.70
2024-01-21T16:25:36.218Z,48.70
2024-01-21T16:28:04.148Z,50.90
2024-01-21T16:30:32.074Z,49.70
2024-01-21T16:33:00.025Z,48.80
2024-01-21T16:35:29.319Z,49.20
2024-01-21T16:37:57.215Z,48.90
2024-01-21T16:40:25.146Z,48.70
2024-01-21T16:42:53.025Z,46.70
2024-01-21T16:45:22.503Z,47.50
2024-01-21T16:47:50.474Z,47.80
2024-01-21T16:50:18.412Z,48.20
2024-01-21T16:52:51.946Z,48.30
2024-01-21T16:55:19.875Z,48.10
2024-01-21T16:57:47.784Z,48.50
2024-01-21T17:00:23.693Z,48.30
2024-01-21T17:02:52.741Z,48.00
2024-01-21T17:05:20.826Z,47.60
2024-01-21T17:07:50.250Z,47.50
2024-01-21T17:10:23.098Z,48.70
2024-01-21T17:12:52.996Z,48.30
2024-01-21T17:15:20.812Z,49.10
2024-01-21T17:17:54.395Z,49.50
2024-01-21T17:20:22.236Z,49.90
2024-01-21T17:22:51.568Z,50.40
2024-01-21T17:25:19.427Z,51.00
2024-01-21T17:27:47.292Z,51.70
2024-01-21T17:30:15.814Z,51.00
2024-01-21T17:32:44.025Z,49.60
2024-01-21T17:35:12.485Z,49.30
2024-01-21T17:37:40.410Z,48.10
2024-01-21T17:40:10.625Z,47.70
2024-01-21T17:42:38.912Z,47.50
2024-01-21T17:45:08.819Z,48.10
2024-01-21T17:47:36.886Z,48.20
2024-01-21T17:50:06.252Z,48.20
2024-01-21T17:52:34.099Z,48.20
2024-01-21T17:55:02.524Z,46.40
2024-01-21T17:57:32.705Z,46.00
2024-01-21T18:00:00.806Z,45.00
2024-01-21T18:02:28.840Z,45.70
2024-01-21T18:04:59.467Z,46.00
2024-01-21T18:07:27.521Z,46.70
2024-01-21T18:09:55.335Z,47.10
2024-01-21T18:12:23.201Z,46.80
2024-01-21T18:14:53.845Z,47.10
2024-01-21T18:17:21.736Z,48.00
2024-01-21T18:19:49.883Z,47.40
2024-01-21T18:22:18.979Z,50.00
2024-01-21T18:24:51.439Z,51.00
2024-01-21T18:27:19.663Z,49.20
2024-01-21T18:29:47.906Z,47.90
2024-01-21T18:32:18.901Z,50.70
2024-01-21T18:34:46.902Z,52.00
2024-01-21T18:37:14.850Z,52.30
2024-01-21T18:39:42.674Z,53.30
2024-01-21T18:42:10.748Z,53.90
2024-01-21T18:44:38.697Z,53.40
2024-01-21T18:47:06.938Z,53.30
2024-01-21T18:49:36.701Z,52.60
2024-01-21T18:52:08.970Z,52.10
2024-01-21T18:54:37.945Z,50.90
2024-01-21T18:57:07.191Z,50.20
2024-01-21T18:59:35.255Z,49.50
2024-01-21T19:02:03.098Z,49.20
2024-01-21T19:04:35.695Z,47.50
2024-01-21T19:07:09.684Z,47.50
2024-01-21T19:09:38.442Z,47.80
2024-01-21T19:12:07.332Z,48.20
2024-01-21T19:14:35.378Z,48.40
2024-01-21T19:17:03.740Z,48.40
2024-01-21T19:19:31.760Z,48.20
2024-01-21T19:21:59.782Z,48.30
2024-01-21T19:24:29.643Z,47.90
2024-01-21T19:26:57.598Z,47.50
2024-01-21T19:29:25.802Z,48.10
2024-01-21T19:31:53.761Z,47.70
2024-01-21T19:34:21.669Z,48.80
2024-01-21T19:36:49.539Z,49.20
2024-01-21T19:39:17.483Z,49.70
2024-01-21T19:41:46.777Z,48.40
2024-01-21T19:44:15.134Z,48.40
2024-01-21T19:46:42.946Z,48.60
2024-01-21T19:49:10.980Z,49.10
2024-01-21T19:51:38.928Z,49.30
2024-01-21T19:54:06.972Z,50.40
2024-01-21T19:56:35.585Z,50.20
2024-01-21T19:59:04.795Z,50.70
2024-01-21T20:01:32.615Z,51.10
2024-01-21T20:04:00.583Z,51.40
2024-01-21T20:06:28.600Z,51.90
2024-01-21T20:08:56.512Z,51.80
2024-01-21T20:11:24.950Z,51.70
2024-01-21T20:13:52.755Z,51.80
2024-01-21T20:16:21.919Z,52.40
2024-01-21T20:18:50.053Z,52.20
2024-01-21T20:21:18.024Z,52.40
2024-01-21T20:23:45.902Z,52.30
2024-01-21T20:26:13.789Z,51.80
2024-01-21T20:28:42.574Z,52.30
2024-01-21T20:31:10.497Z,52.00
2024-01-21T20:33:39.901Z,53.00
2024-01-21T20:36:08.739Z,53.00
2024-01-21T20:38:37.067Z,52.00
2024-01-21T20:41:09.555Z,51.10
2024-01-21T20:43:37.579Z,49.10
2024-01-21T20:46:05.864Z,48.50
2024-01-21T20:48:33.756Z,47.60
2024-01-21T20:51:03.026Z,47.80
2024-01-21T20:53:30.927Z,47.70
2024-01-21T20:55:58.772Z,47.50
2024-01-21T20:58:26.614Z,47.10
2024-01-21T21:01:02.436Z,46.40
2024-01-21T21:03:37.790Z,46.30
2024-01-21T21:06:07.276Z,46.20
2024-01-21T21:08:35.204Z,45.80
2024-01-21T21:11:04.724Z,46.40
2024-01-21T21:13:32.707Z,45.90
2024-01-21T21:16:00.625Z,46.00
2024-01-21T21:18:28.606Z,45.40
2024-01-21T21:20:56.655Z,45.40
2024-01-21T21:23:28.429Z,45.40
2024-01-21T21:25:56.325Z,44.60
2024-01-21T21:28:24.946Z,42.90
2024-01-21T21:30:52.751Z,43.40
2024-01-21T21:33:23.062Z,43.90
2024-01-21T21:35:51.083Z,44.70
2024-01-21T21:38:19.055Z,44.80
2024-01-21T21:40:48.566Z,44.10
2024-01-21T21:43:16.656Z,43.30
2024-01-21T21:45:46.751Z,43.30
2024-01-21T21:48:16.013Z,44.00
2024-01-21T21:50:44.663Z,43.50
2024-01-21T21:53:13.326Z,43.80
2024-01-21T21:55:46.131Z,43.20
2024-01-21T21:58:15.913Z,42.90
2024-01-21T22:00:44.037Z,42.90
2024-01-21T22:03:12.484Z,41.90
2024-01-21T22:05:40.657Z,42.70
2024-01-21T22:08:09.017Z,41.80
2024-01-21T22:10:37.467Z,41.80
2024-01-21T22:13:05.783Z,42.20
2024-01-21T22:15:36.932Z,43.10
2024-01-21T22:18:05.102Z,43.20
2024-01-21T22:20:33.164Z,43.60
2024-01-21T22:23:01.208Z,43.60
2024-01-21T22:25:29.073Z,42.90
2024-01-21T22:27:56.899Z,43.00
2024-01-21T22:30:24.766Z,43.30
2024-01-21T22:32:54.315Z,43.80
2024-01-21T22:35:22.226Z,44.00
2024-01-21T22:37:50.032Z,44.80
2024-01-21T22:40:18.120Z,45.20
2024-01-21T22:42:46.323Z,45.40
2024-01-21T22:45:14.358Z,45.80
2024-01-21T22:47:42.454Z,46.30
2024-01-21T22:50:12.124Z,47.10
2024-01-21T22:52:40.099Z,48.20
2024-01-21T22:55:09.373Z,47.70
2024-01-21T22:57:37.221Z,48.20
2024-01-21T23:00:09.863Z,49.30
2024-01-21T23:02:37.799Z,49.80
2024-01-21T23:05:06.240Z,49.80
2024-01-21T23:07:35.565Z,49.50
2024-01-21T23:10:03.712Z,50.30
2024-01-21T23:12:31.544Z,50.70
2024-01-21T23:14:59.378Z,50.40
2024-01-21T23:17:27.331Z,50.90
2024-01-21T23:19:55.182Z,50.60
2024-01-21T23:22:23.084Z,51.40
2024-01-21T23:24:52.332Z,51.00
2024-01-21T23:27:20.215Z,51.30
2024-01-21T23:29:48.075Z,51.60
2024-01-21T23:32:16.235Z,51.70
2024-01-21T23:34:44.140Z,52.60
2024-01-21T23:37:11.974Z,52.70
2024-01-21T23:39:39.798Z,52.80
2024-01-21T23:42:09.738Z,53.60
2024-01-21T23:44:37.735Z,53.40
2024-01-21T23:47:05.937Z,52.80
2024-01-21T23:49:34.036Z,51.50
2024-01-21T23:52:01.873Z,51.40
2024-01-21T23:54:29.719Z,52.30
2024-01-21T23:56:57.772Z,53.00
2024-01-21T23:59:27.121Z,53.30
